Time;durP1;ratioP1;P1;durP2;ratioP2;P2;SDS_P1;SDS_P2;PMS_P1;PMS_P2;Temp;Humidity;BMP_temperature;BMP_pressure;BME280_temperature;BME280_humidity;BME280_pressure;Samples;Min_cycle;Max_cycle;Signal;HPM_P1;HPM_P2
2021/04/23 00:00:52;;;;;;;6.80;3.33;;;11.40;92.80;;;;;;1733645;83;21161;-76
2021/04/23 00:03:39;;;;;;;5.83;3.90;;;11.30;93.20;;;;;;1733325;82;21153;-74
2021/04/23 00:06:29;;;;;;;8.30;4.58;;;11.30;94.00;;;;;;1733223;82;21177;-75
2021/04/23 00:09:11;;;;;;;6.72;4.42;;;11.30;93.10;;;;;;1733153;83;21183;-75
2021/04/23 00:11:47;;;;;;;6.58;4.53;;;11.40;93.50;;;;;;1730790;83;21176;-75
2021/04/23 00:14:18;;;;;;;6.25;4.20;;;11.50;93.40;;;;;;1728532;83;21201;-76
2021/04/23 00:16:47;;;;;;;9.35;4.17;;;11.40;92.10;;;;;;1720024;83;21310;-75
2021/04/23 00:19:20;;;;;;;7.30;4.45;;;11.40;92.80;;;;;;1720187;83;21177;-74
2021/04/23 00:21:49;;;;;;;6.03;3.92;;;11.40;92.10;;;;;;1720001;83;21141;-73
2021/04/23 00:24:17;;;;;;;9.43;5.10;;;11.30;93.00;;;;;;1719952;83;21134;-73
2021/04/23 00:26:46;;;;;;;6.22;3.75;;;11.30;92.70;;;;;;1720371;83;21168;-74
2021/04/23 00:29:14;;;;;;;6.37;4.03;;;11.30;93.20;;;;;;1720185;83;21142;-73
2021/04/23 00:31:46;;;;;;;7.17;4.22;;;11.40;92.90;;;;;;1720527;83;21161;-73
2021/04/23 00:34:13;;;;;;;6.17;4.15;;;11.40;92.50;;;;;;1720183;83;21145;-73
2021/04/23 00:36:41;;;;;;;7.33;4.45;;;11.40;93.30;;;;;;1720334;83;21165;-74
2021/04/23 00:39:09;;;;;;;6.47;4.53;;;11.40;92.70;;;;;;1720344;83;21142;-73
2021/04/23 00:41:37;;;;;;;6.72;4.15;;;11.50;92.50;;;;;;1720482;83;21193;-76
2021/04/23 00:44:05;;;;;;;6.97;4.17;;;11.40;92.90;;;;;;1720345;83;21129;-77
2021/04/23 00:46:34;;;;;;;8.58;4.20;;;11.40;93.20;;;;;;1720161;83;21165;-75
2021/04/23 00:49:05;;;;;;;6.47;4.05;;;11.50;92.60;;;;;;1720114;83;21141;-75
2021/04/23 00:51:44;;;;;;;6.87;4.20;;;11.60;92.80;;;;;;1720191;83;21149;-75
2021/04/23 00:54:14;;;;;;;8.10;4.28;;;11.60;91.80;;;;;;1719802;83;21655;-75
2021/04/23 00:56:42;;;;;;;8.53;4.62;;;11.80;91.70;;;;;;1720319;83;21176;-75
2021/04/23 00:59:13;;;;;;;10.15;5.60;;;11.70;91.80;;;;;;1720330;83;21176;-76
2021/04/23 01:02:00;;;;;;;12.95;6.55;;;11.80;91.70;;;;;;1720148;83;21126;-75
2021/04/23 01:04:30;;;;;;;8.90;5.58;;;11.90;90.70;;;;;;1719684;83;21161;-75
2021/04/23 01:06:59;;;;;;;8.38;5.47;;;11.90;91.30;;;;;;1720118;83;21133;-75
2021/04/23 01:09:30;;;;;;;10.00;5.92;;;11.80;91.20;;;;;;1720291;83;21189;-76
2021/04/23 01:12:04;;;;;;;9.93;5.45;;;11.80;91.30;;;;;;1720262;83;21137;-74
2021/04/23 01:14:33;;;;;;;8.50;5.10;;;11.70;91.80;;;;;;1720238;83;21592;-74
2021/04/23 01:17:01;;;;;;;6.83;4.47;;;11.60;92.60;;;;;;1720230;83;21134;-74
2021/04/23 01:19:29;;;;;;;8.18;4.58;;;11.50;93.50;;;;;;1720122;83;21271;-74
2021/04/23 01:21:57;;;;;;;9.40;4.53;;;11.40;93.60;;;;;;1720384;83;21165;-74
2021/04/23 01:24:26;;;;;;;7.37;4.72;;;11.50;94.00;;;;;;1720305;83;21623;-74
2021/04/23 01:26:56;;;;;;;7.85;4.85;;;11.60;93.20;;;;;;1720119;83;21157;-74
2021/04/23 01:29:26;;;;;;;11.28;5.80;;;11.60;93.10;;;;;;1720391;83;21155;-75
2021/04/23 01:31:57;;;;;;;9.45;5.75;;;11.60;92.80;;;;;;1720113;83;21145;-74
2021/04/23 01:34:30;;;;;;;8.85;5.30;;;11.50;92.80;;;;;;1720142;83;21145;-74
2021/04/23 01:37:00;;;;;;;8.23;4.97;;;11.50;93.50;;;;;;1720287;83;21150;-75
2021/04/23 01:39:31;;;;;;;8.88;5.17;;;11.40;93.70;;;;;;1720110;83;21157;-75
2021/04/23 01:42:01;;;;;;;7.58;5.15;;;11.40;93.90;;;;;;1720096;83;21114;-75
2021/04/23 01:44:30;;;;;;;9.20;5.28;;;11.40;93.90;;;;;;1720106;83;21177;-75
2021/04/23 01:46:59;;;;;;;11.88;5.85;;;11.20;95.30;;;;;;1720303;83;21184;-73
2021/04/23 01:49:27;;;;;;;9.38;5.62;;;11.20;95.30;;;;;;1720090;83;21170;-75
2021/04/23 01:52:00;;;;;;;9.25;5.78;;;11.20;95.10;;;;;;1720265;83;21643;-75
2021/04/23 01:54:28;;;;;;;8.98;5.65;;;11.20;95.70;;;;;;1720274;83;21573;-75
2021/04/23 01:56:58;;;;;;;8.15;4.92;;;11.20;95.90;;;;;;1720116;83;21160;-75
2021/04/23 01:59:28;;;;;;;11.33;5.70;;;11.10;95.70;;;;;;1720032;83;21181;-74
2021/04/23 02:01:59;;;;;;;9.55;5.60;;;11.10;95.50;;;;;;1720168;83;21625;-74
2021/04/23 02:04:27;;;;;;;11.03;6.03;;;11.20;96.10;;;;;;1720309;83;21615;-74
2021/04/23 02:06:57;;;;;;;9.28;5.97;;;11.30;95.50;;;;;;1720114;83;21118;-74
2021/04/23 02:09:24;;;;;;;8.70;5.72;;;11.30;95.60;;;;;;1720064;83;21142;-76
2021/04/23 02:11:53;;;;;;;9.63;5.15;;;11.30;95.70;;;;;;1720269;83;21157;-74
2021/04/23 02:14:24;;;;;;;8.68;5.50;;;11.30;93.50;;;;;;1721360;82;21164;-74
2021/04/23 02:16:54;;;;;;;12.78;7.17;;;11.30;93.80;;;;;;1733266;82;21148;-76
2021/04/23 02:19:24;;;;;;;9.13;6.05;;;11.30;93.90;;;;;;1733436;83;21223;-75
2021/04/23 02:21:52;;;;;;;10.88;7.00;;;11.30;94.20;;;;;;1733337;83;21188;-76
2021/04/23 02:24:20;;;;;;;13.25;7.50;;;11.30;93.30;;;;;;1733320;83;21161;-75
2021/04/23 02:26:48;;;;;;;10.30;6.90;;;11.40;93.30;;;;;;1733436;83;21172;-75
2021/04/23 02:29:18;;;;;;;14.00;7.62;;;11.40;92.80;;;;;;1733569;83;21181;-75
2021/04/23 02:31:51;;;;;;;12.07;7.42;;;11.30;92.80;;;;;;1733224;83;21200;-76
2021/04/23 02:34:23;;;;;;;10.55;6.28;;;11.30;93.20;;;;;;1733438;82;21165;-73
2021/04/23 02:36:53;;;;;;;10.18;5.28;;;11.20;93.80;;;;;;1733268;83;21173;-77
2021/04/23 02:39:22;;;;;;;7.70;4.72;;;11.10;94.60;;;;;;1733254;82;21172;-75
2021/04/23 02:41:54;;;;;;;5.20;3.47;;;11.00;93.80;;;;;;1733231;83;21180;-77
2021/04/23 02:44:25;;;;;;;6.80;4.00;;;11.00;94.10;;;;;;1733444;83;21140;-77
2021/04/23 02:46:54;;;;;;;10.05;4.22;;;11.00;94.90;;;;;;1733254;82;21142;-78
2021/04/23 02:49:23;;;;;;;5.87;3.40;;;11.00;96.10;;;;;;1733366;82;21217;-79
2021/04/23 02:51:53;;;;;;;7.05;3.42;;;11.20;94.50;;;;;;1733244;82;21169;-78
2021/04/23 02:54:23;;;;;;;6.37;3.62;;;11.20;94.30;;;;;;1733415;83;21167;-79
2021/04/23 02:56:51;;;;;;;5.75;3.22;;;11.20;94.40;;;;;;1733245;83;21180;-77
2021/04/23 02:59:18;;;;;;;6.83;3.20;;;11.20;93.50;;;;;;1733205;82;21176;-76
2021/04/23 03:01:51;;;;;;;4.75;3.10;;;11.10;93.90;;;;;;1733431;83;21559;-77
2021/04/23 03:04:20;;;;;;;7.47;3.62;;;11.10;94.30;;;;;;1733340;83;21140;-76
2021/04/23 03:06:47;;;;;;;6.03;3.80;;;11.00;94.40;;;;;;1733308;83;21580;-76
2021/04/23 03:09:15;;;;;;;6.35;3.55;;;11.00;95.60;;;;;;1733196;82;21180;-76
2021/04/23 03:11:44;;;;;;;5.75;3.90;;;11.10;95.10;;;;;;1733580;83;21157;-75
2021/04/23 03:14:12;;;;;;;5.72;3.85;;;11.00;94.60;;;;;;1733488;83;21571;-76
2021/04/23 03:16:43;;;;;;;7.45;4.12;;;11.10;94.50;;;;;;1721442;82;21205;-76
2021/04/23 03:19:18;;;;;;;6.50;4.10;;;11.00;94.30;;;;;;1720251;83;21145;-77
2021/04/23 03:21:47;;;;;;;5.47;3.85;;;11.00;94.80;;;;;;1720035;83;21141;-79
2021/04/23 03:24:18;;;;;;;7.12;4.25;;;10.90;94.70;;;;;;1720016;83;21312;-77
2021/04/23 03:26:46;;;;;;;8.55;4.62;;;10.90;95.00;;;;;;1720394;83;21181;-76
2021/04/23 03:29:16;;;;;;;7.83;4.58;;;11.00;95.30;;;;;;1720102;83;21168;-77
2021/04/23 03:31:46;;;;;;;7.08;4.85;;;11.00;95.10;;;;;;1720094;83;21611;-77
2021/04/23 03:34:15;;;;;;;7.70;4.53;;;11.00;95.20;;;;;;1720207;83;21164;-77
2021/04/23 03:36:43;;;;;;;6.28;4.25;;;11.00;94.90;;;;;;1720138;83;21157;-76
2021/04/23 03:39:12;;;;;;;6.33;4.10;;;11.00;94.40;;;;;;1719997;83;21319;-75
2021/04/23 03:41:41;;;;;;;6.97;4.28;;;11.00;95.30;;;;;;1720218;83;21591;-76
2021/04/23 03:44:10;;;;;;;7.40;4.50;;;11.00;96.50;;;;;;1720015;83;21312;-76
2021/04/23 03:46:38;;;;;;;6.37;4.28;;;11.10;93.70;;;;;;1720101;83;21608;-75
2021/04/23 03:49:05;;;;;;;5.72;3.85;;;11.20;94.50;;;;;;1720170;83;21180;-75
2021/04/23 03:51:33;;;;;;;9.80;4.55;;;11.20;94.40;;;;;;1720029;83;21291;-75
2021/04/23 03:54:01;;;;;;;8.78;4.85;;;11.10;94.30;;;;;;1720102;83;21153;-75
2021/04/23 03:56:29;;;;;;;8.28;5.22;;;11.10;94.90;;;;;;1720305;83;21172;-75
2021/04/23 03:58:57;;;;;;;8.15;5.15;;;11.10;93.70;;;;;;1720002;83;21189;-76
2021/04/23 04:01:26;;;;;;;8.55;4.78;;;11.10;93.50;;;;;;1720162;83;21177;-75
2021/04/23 04:03:55;;;;;;;6.50;4.12;;;11.10;92.90;;;;;;1720239;83;21185;-76
2021/04/23 04:06:25;;;;;;;6.95;4.10;;;11.20;92.40;;;;;;1720384;83;21141;-76
2021/04/23 04:08:53;;;;;;;8.75;4.78;;;11.20;92.20;;;;;;1720140;83;21192;-75
2021/04/23 04:11:21;;;;;;;8.53;5.58;;;11.20;92.20;;;;;;1720366;83;21165;-76
2021/04/23 04:13:49;;;;;;;11.38;5.83;;;11.20;92.50;;;;;;1720164;83;21130;-76
2021/04/23 04:16:17;;;;;;;12.70;6.95;;;11.30;91.60;;;;;;1720298;82;21196;-76
2021/04/23 04:18:45;;;;;;;10.58;6.95;;;11.30;91.00;;;;;;1720541;83;21134;-78
2021/04/23 04:21:13;;;;;;;10.88;7.25;;;11.30;91.60;;;;;;1720145;83;21133;-76
2021/04/23 04:23:41;;;;;;;12.10;7.12;;;11.30;92.30;;;;;;1720135;83;21166;-76
2021/04/23 04:26:08;;;;;;;12.05;7.58;;;11.30;91.40;;;;;;1720636;83;21177;-76
2021/04/23 04:28:36;;;;;;;16.73;7.60;;;11.30;91.50;;;;;;1720694;83;21563;-75
2021/04/23 04:31:04;;;;;;;17.85;8.20;;;11.40;91.40;;;;;;1720270;83;21153;-79
2021/04/23 04:33:34;;;;;;;15.25;8.13;;;11.40;90.80;;;;;;1717671;83;21173;-79
2021/04/23 04:36:02;;;;;;;14.00;8.13;;;11.40;91.20;;;;;;1720223;83;21603;-78
2021/04/23 04:38:30;;;;;;;19.25;8.10;;;11.40;91.00;;;;;;1720363;83;21575;-78
2021/04/23 04:40:58;;;;;;;11.10;8.00;;;11.40;91.80;;;;;;1720134;83;21174;-76
2021/04/23 04:43:26;;;;;;;9.73;6.55;;;11.40;92.30;;;;;;1720126;83;21161;-76
2021/04/23 04:45:54;;;;;;;10.82;6.97;;;11.50;91.60;;;;;;1720341;83;21552;-77
2021/04/23 04:48:21;;;;;;;14.95;8.55;;;11.50;91.20;;;;;;1720153;83;21165;-78
2021/04/23 04:50:54;;;;;;;13.43;7.62;;;11.40;90.90;;;;;;1720318;83;21169;-78
2021/04/23 04:53:24;;;;;;;13.43;7.58;;;11.40;91.00;;;;;;1720163;83;21161;-76
2021/04/23 04:55:56;;;;;;;13.48;7.20;;;11.40;90.80;;;;;;1720309;83;21169;-75
2021/04/23 04:58:29;;;;;;;14.95;7.72;;;11.50;90.60;;;;;;1720320;83;21153;-75
2021/04/23 05:00:59;;;;;;;12.47;7.08;;;11.40;90.60;;;;;;1720175;83;21173;-75
2021/04/23 05:03:27;;;;;;;13.10;6.42;;;11.50;90.60;;;;;;1717373;83;21154;-75
2021/04/23 05:05:55;;;;;;;10.80;6.55;;;11.40;89.90;;;;;;1695580;83;21271;-76
2021/04/23 05:08:22;;;;;;;11.28;6.03;;;11.50;89.90;;;;;;1721338;83;21146;-75
2021/04/23 05:10:50;;;;;;;12.63;6.45;;;11.50;89.20;;;;;;1721419;83;21169;-73
2021/04/23 05:13:18;;;;;;;10.25;6.33;;;11.50;89.70;;;;;;1721110;83;21152;-72
2021/04/23 05:15:46;;;;;;;10.80;6.45;;;11.60;89.80;;;;;;1721186;83;21288;-73
2021/04/23 05:18:13;;;;;;;12.35;7.30;;;11.60;89.70;;;;;;1720427;83;21121;-75
2021/04/23 05:20:42;;;;;;;11.68;6.95;;;11.70;89.90;;;;;;1720753;83;21177;-74
2021/04/23 05:23:11;;;;;;;12.63;8.18;;;11.70;90.00;;;;;;1717500;83;21149;-77
2021/04/23 05:25:39;;;;;;;11.93;7.80;;;11.80;90.00;;;;;;1721283;83;21153;-75
2021/04/23 05:28:07;;;;;;;11.97;7.87;;;11.70;90.10;;;;;;1721367;83;21600;-77
2021/04/23 05:30:37;;;;;;;14.93;8.78;;;11.70;90.70;;;;;;1721316;83;21165;-77
2021/04/23 05:33:09;;;;;;;12.35;7.85;;;11.70;90.80;;;;;;1721177;83;21134;-77
2021/04/23 05:35:40;;;;;;;15.10;8.10;;;11.80;90.90;;;;;;1718782;83;21563;-76
2021/04/23 05:38:08;;;;;;;13.05;8.10;;;11.80;90.70;;;;;;1703670;83;21145;-76
2021/04/23 05:40:46;;;;;;;13.75;8.58;;;11.80;90.60;;;;;;1720058;83;21172;-76
2021/04/23 05:43:17;;;;;;;22.35;12.93;;;11.90;90.80;;;;;;1722645;83;21268;-75
2021/04/23 05:45:48;;;;;;;19.60;9.25;;;11.90;90.90;;;;;;1722890;83;21585;-74
2021/04/23 05:48:18;;;;;;;16.15;9.88;;;11.90;91.20;;;;;;1722823;82;21312;-75
2021/04/23 05:50:48;;;;;;;15.60;9.63;;;12.00;91.00;;;;;;1721642;83;21563;-74
2021/04/23 05:53:16;;;;;;;19.27;10.63;;;12.00;90.80;;;;;;1721472;83;21153;-78
2021/04/23 05:55:45;;;;;;;15.78;9.83;;;12.00;90.90;;;;;;1717552;83;21601;-83
2021/04/23 05:58:13;;;;;;;16.37;10.25;;;12.00;91.10;;;;;;1719372;83;21150;-81
2021/04/23 06:00:42;;;;;;;19.50;11.50;;;12.10;90.50;;;;;;1719525;83;21206;-82
2021/04/23 06:03:12;;;;;;;19.80;11.65;;;12.00;90.90;;;;;;1720192;83;21158;-77
2021/04/23 06:05:41;;;;;;;19.20;12.03;;;11.90;91.00;;;;;;1721028;83;21117;-82
2021/04/23 06:08:13;;;;;;;20.65;12.40;;;11.90;91.70;;;;;;1721507;83;21288;-79
2021/04/23 06:10:44;;;;;;;20.55;11.63;;;11.80;92.40;;;;;;1721622;83;21132;-82
2021/04/23 06:13:13;;;;;;;18.50;12.00;;;11.80;91.50;;;;;;1721310;83;21675;-81
2021/04/23 06:15:42;;;;;;;19.40;11.95;;;11.90;91.20;;;;;;1723059;82;21140;-82
2021/04/23 06:18:11;;;;;;;22.75;12.90;;;11.90;91.10;;;;;;1744964;81;21192;-84
2021/04/23 06:20:45;;;;;;;19.37;12.43;;;11.90;91.50;;;;;;1742265;82;21146;-85
2021/04/23 06:23:17;;;;;;;23.45;12.85;;;11.70;91.40;;;;;;1742827;82;21547;-86
2021/04/23 06:25:45;;;;;;;20.85;12.70;;;11.50;91.10;;;;;;1738361;82;21132;-84
2021/04/23 06:28:13;;;;;;;22.65;12.78;;;11.40;91.40;;;;;;1753983;82;21165;-86
2021/04/23 06:30:41;;;;;;;20.82;11.78;;;11.50;91.60;;;;;;1753903;82;21169;-85
2021/04/23 06:33:22;;;;;;;21.52;12.73;;;11.50;91.30;;;;;;1753679;81;21165;-85
2021/04/23 06:35:47;;;;;;;21.30;12.28;;;11.50;91.50;;;;;;1752731;82;21603;-82
2021/04/23 06:38:15;;;;;;;20.68;12.05;;;11.60;90.50;;;;;;1753462;81;21173;-77
2021/04/23 06:40:43;;;;;;;19.82;12.28;;;11.70;89.60;;;;;;1753595;82;21169;-76
2021/04/23 06:43:12;;;;;;;20.90;11.12;;;11.80;89.10;;;;;;1753649;82;21619;-76
2021/04/23 06:45:39;;;;;;;17.35;11.40;;;11.90;87.00;;;;;;1753415;81;21186;-84
2021/04/23 06:48:13;;;;;;;20.27;11.65;;;12.00;85.80;;;;;;1753598;82;21176;-79
2021/04/23 06:50:42;;;;;;;18.57;11.70;;;12.10;86.60;;;;;;1753399;82;21148;-82
2021/04/23 06:53:11;;;;;;;18.32;11.35;;;12.10;86.40;;;;;;1753332;82;21134;-83
2021/04/23 06:55:39;;;;;;;19.40;11.75;;;12.20;86.00;;;;;;1753635;82;21174;-84
2021/04/23 06:58:07;;;;;;;17.65;10.85;;;12.10;83.90;;;;;;1753712;82;21556;-81
2021/04/23 07:00:38;;;;;;;19.75;10.85;;;12.00;84.10;;;;;;1753511;82;21181;-82
2021/04/23 07:03:10;;;;;;;17.32;10.63;;;12.10;83.40;;;;;;1753464;82;21133;-81
2021/04/23 07:05:42;;;;;;;18.20;10.58;;;12.20;83.30;;;;;;1753680;82;21194;-82
2021/04/23 07:08:11;;;;;;;19.15;12.05;;;12.10;83.10;;;;;;1753308;82;21168;-82
2021/04/23 07:10:40;;;;;;;17.35;9.95;;;11.90;82.00;;;;;;1753458;82;21134;-82
2021/04/23 07:13:08;;;;;;;16.40;10.72;;;11.90;82.90;;;;;;1753806;82;21174;-82
2021/04/23 07:15:37;;;;;;;15.75;9.93;;;12.00;84.70;;;;;;1753609;82;21172;-81
2021/04/23 07:18:05;;;;;;;14.85;9.25;;;12.00;83.00;;;;;;1753433;81;21153;-83
2021/04/23 07:20:37;;;;;;;13.95;9.68;;;12.10;82.70;;;;;;1753095;82;21568;-83
2021/04/23 07:23:06;;;;;;;14.47;9.65;;;12.10;82.10;;;;;;1753537;82;21141;-82
2021/04/23 07:25:35;;;;;;;15.25;8.70;;;12.20;80.50;;;;;;1753645;82;21176;-81
2021/04/23 07:28:04;;;;;;;12.20;7.65;;;12.40;79.20;;;;;;1753564;82;21156;-81
2021/04/23 07:30:35;;;;;;;11.83;7.28;;;12.50;76.90;;;;;;1754016;81;21571;-81
2021/04/23 07:33:08;;;;;;;11.40;7.40;;;12.50;77.60;;;;;;1753616;82;21137;-81
2021/04/23 07:35:40;;;;;;;13.08;7.95;;;12.60;77.40;;;;;;1753533;81;21166;-81
2021/04/23 07:38:09;;;;;;;11.88;6.90;;;12.60;75.10;;;;;;1753750;82;21146;-82
2021/04/23 07:40:37;;;;;;;9.78;6.10;;;12.50;74.90;;;;;;1754045;82;21173;-82
2021/04/23 07:43:05;;;;;;;8.73;4.80;;;12.60;75.60;;;;;;1753852;81;21153;-81
2021/04/23 07:45:35;;;;;;;8.73;4.30;;;12.50;76.70;;;;;;1750008;82;21604;-82
2021/04/23 07:48:03;;;;;;;8.45;3.83;;;12.50;74.50;;;;;;1753596;82;21219;-84
2021/04/23 07:50:32;;;;;;;5.45;3.40;;;12.80;74.40;;;;;;1753991;82;21153;-83
2021/04/23 07:53:00;;;;;;;8.83;4.37;;;12.90;72.50;;;;;;1753574;81;21161;-84
2021/04/23 07:55:27;;;;;;;6.72;4.20;;;12.80;72.10;;;;;;1753623;82;21620;-84
2021/04/23 07:57:55;;;;;;;7.75;4.40;;;12.70;72.40;;;;;;1754017;82;21548;-85
2021/04/23 08:00:25;;;;;;;8.75;4.85;;;12.60;71.80;;;;;;1753905;81;21189;-86
2021/04/23 08:02:54;;;;;;;6.83;4.28;;;12.60;70.50;;;;;;1753644;82;21154;-84
2021/04/23 08:05:25;;;;;;;5.37;3.85;;;12.60;71.10;;;;;;1753417;82;21173;-84
2021/04/23 08:07:55;;;;;;;6.87;3.40;;;12.60;69.30;;;;;;1727101;82;21146;-85
2021/04/23 08:10:22;;;;;;;6.33;4.12;;;12.70;68.50;;;;;;1753611;82;21628;-86
2021/04/23 08:12:52;;;;;;;6.15;4.40;;;12.70;67.50;;;;;;1753587;81;21189;-83
2021/04/23 08:15:25;;;;;;;12.95;4.20;;;12.70;66.50;;;;;;1753801;81;21567;-84
2021/04/23 08:17:56;;;;;;;4.72;2.70;;;12.70;64.70;;;;;;1739448;81;21730;-85
2021/04/23 08:20:23;;;;;;;6.55;2.77;;;13.00;61.50;;;;;;1735859;83;21299;-85
2021/04/23 08:22:51;;;;;;;3.85;2.10;;;13.10;59.90;;;;;;1735987;82;21180;-82
2021/04/23 08:25:21;;;;;;;5.87;2.00;;;13.10;59.30;;;;;;1736055;83;21586;-81
2021/04/23 08:27:50;;;;;;;10.55;2.27;;;13.20;56.80;;;;;;1735773;82;21303;-82
2021/04/23 08:30:24;;;;;;;4.70;1.80;;;13.30;56.50;;;;;;1734804;82;21348;-83
2021/04/23 08:32:53;;;;;;;4.97;1.85;;;13.70;54.30;;;;;;1735647;82;21292;-83
2021/04/23 08:35:22;;;;;;;5.00;2.40;;;13.70;56.10;;;;;;1735807;83;21170;-82
2021/04/23 08:37:51;;;;;;;4.75;2.10;;;13.80;55.50;;;;;;1729002;82;21301;-84
2021/04/23 08:40:21;;;;;;;4.70;2.00;;;14.00;55.80;;;;;;1708385;83;21160;-72
2021/04/23 08:42:51;;;;;;;7.17;2.22;;;14.10;55.40;;;;;;1709441;83;21597;-72
2021/04/23 08:45:21;;;;;;;8.00;2.45;;;14.00;55.70;;;;;;1713186;83;21579;-71
2021/04/23 08:47:51;;;;;;;4.72;2.30;;;13.60;55.80;;;;;;1712872;83;21177;-74
2021/04/23 08:50:24;;;;;;;4.53;2.50;;;13.70;57.20;;;;;;1715221;83;21195;-74
2021/04/23 08:52:54;;;;;;;4.80;2.25;;;13.80;56.60;;;;;;1709084;83;21171;-73
2021/04/23 08:55:26;;;;;;;6.17;2.10;;;14.20;54.00;;;;;;1711366;83;21113;-69
2021/04/23 08:57:56;;;;;;;3.45;2.00;;;14.40;53.90;;;;;;1706972;83;21140;-71
2021/04/23 09:00:24;;;;;;;4.85;1.90;;;14.70;52.00;;;;;;1712634;83;21144;-72
2021/04/23 09:02:56;;;;;;;5.50;2.45;;;15.00;52.90;;;;;;1711368;83;21136;-69
2021/04/23 09:05:22;;;;;;;5.72;2.45;;;15.10;50.80;;;;;;1708874;83;21308;-73
2021/04/23 09:08:07;;;;;;;7.03;2.70;;;15.10;49.30;;;;;;1711321;83;21133;-73
2021/04/23 09:10:46;;;;;;;5.58;2.72;;;15.20;49.90;;;;;;1811566;79;23088;-72
2021/04/23 09:13:16;;;;;;;4.00;2.10;;;15.30;48.30;;;;;;1787378;80;21126;-72
2021/04/23 09:15:46;;;;;;;4.65;1.80;;;15.40;48.80;;;;;;1783214;80;21583;-71
2021/04/23 09:18:24;;;;;;;6.62;2.10;;;15.20;47.40;;;;;;1785057;80;21121;-72
2021/04/23 09:21:04;;;;;;;6.72;2.35;;;15.40;47.00;;;;;;1780935;80;21128;-73
2021/04/23 09:23:35;;;;;;;13.10;7.15;;;15.40;46.20;;;;;;1782373;80;21117;-73
2021/04/23 09:26:02;;;;;;;5.10;2.55;;;15.40;47.50;;;;;;1760792;81;21152;-75
2021/04/23 09:28:43;;;;;;;7.47;2.30;;;15.40;45.60;;;;;;1776189;80;21227;-71
2021/04/23 09:31:30;;;;;;;5.08;2.10;;;15.40;44.30;;;;;;1781115;79;21153;-72
2021/04/23 09:34:08;;;;;;;5.78;1.82;;;15.40;45.60;;;;;;1782420;79;21117;-73
2021/04/23 09:36:44;;;;;;;3.70;1.80;;;15.40;43.00;;;;;;1782558;79;21542;-73
2021/04/23 09:39:25;;;;;;;5.37;2.20;;;15.30;44.30;;;;;;1781486;80;21116;-71
2021/04/23 09:42:03;;;;;;;5.58;1.87;;;15.20;42.00;;;;;;1782049;80;21548;-83
2021/04/23 09:44:44;;;;;;;3.60;1.75;;;15.30;42.30;;;;;;1786429;80;21129;-77
2021/04/23 09:47:23;;;;;;;3.95;1.80;;;15.40;40.60;;;;;;1781814;80;21500;-75
2021/04/23 09:49:58;;;;;;;5.03;1.52;;;15.20;39.90;;;;;;1785306;79;21118;-68
2021/04/23 09:52:28;;;;;;;3.37;1.60;;;15.30;35.70;;;;;;1753764;80;21149;-72
2021/04/23 09:55:03;;;;;;;7.55;1.82;;;15.30;34.50;;;;;;1778919;80;21121;-73
2021/04/23 09:57:40;;;;;;;4.00;1.90;;;15.40;37.10;;;;;;1782970;80;21142;-70
2021/04/23 10:00:12;;;;;;;4.45;1.70;;;15.40;35.20;;;;;;1792974;79;21143;-77
2021/04/23 10:02:40;;;;;;;7.47;2.12;;;15.50;35.70;;;;;;1796667;80;21154;-72
2021/04/23 10:05:09;;;;;;;5.42;2.25;;;15.50;36.20;;;;;;1796151;80;21714;-77
2021/04/23 10:07:37;;;;;;;4.97;2.08;;;15.50;36.40;;;;;;1796502;80;21147;-74
2021/04/23 10:10:11;;;;;;;6.00;2.08;;;15.30;36.80;;;;;;1789373;80;21205;-77
2021/04/23 10:12:53;;;;;;;5.00;2.12;;;15.20;37.20;;;;;;1785423;80;21127;-78
2021/04/23 10:15:30;;;;;;;6.67;2.10;;;15.30;37.10;;;;;;1781742;80;21611;-76
2021/04/23 10:18:02;;;;;;;3.95;1.90;;;15.30;36.60;;;;;;1775286;80;21576;-75
2021/04/23 10:20:43;;;;;;;5.10;2.00;;;15.40;37.40;;;;;;1754330;82;21107;-78
2021/04/23 10:23:17;;;;;;;5.70;1.92;;;15.40;36.90;;;;;;1753484;82;21115;-77
2021/04/23 10:25:53;;;;;;;5.20;1.80;;;15.40;35.40;;;;;;1754489;82;21159;-80
2021/04/23 10:28:25;;;;;;;4.62;1.70;;;15.40;34.90;;;;;;1768028;80;21119;-83
2021/04/23 10:30:55;;;;;;;5.90;1.85;;;15.40;36.20;;;;;;1776372;80;21728;-84
2021/04/23 10:33:28;;;;;;;6.62;1.67;;;15.50;35.60;;;;;;1743134;80;21544;-84
2021/04/23 10:35:59;;;;;;;6.58;1.90;;;15.50;35.40;;;;;;1771135;80;21543;-86
2021/04/23 10:38:40;;;;;;;5.65;1.85;;;15.30;33.00;;;;;;1775538;80;21125;-81
2021/04/23 10:41:12;;;;;;;4.45;1.85;;;15.30;34.40;;;;;;1782160;80;21719;-80
2021/04/23 10:43:57;;;;;;;4.72;1.92;;;15.40;35.10;;;;;;1784897;80;21139;-77
2021/04/23 10:46:28;;;;;;;4.62;2.12;;;15.40;35.80;;;;;;1777181;80;21133;-74
2021/04/23 10:49:08;;;;;;;6.40;2.40;;;15.50;36.50;;;;;;1779303;80;21130;-74
2021/04/23 10:51:35;;;;;;;4.83;1.70;;;15.50;36.90;;;;;;1778735;81;21280;-75
2021/04/23 10:54:17;;;;;;;4.40;2.00;;;15.60;37.30;;;;;;1751988;80;21139;-74
2021/04/23 10:56:55;;;;;;;4.55;2.37;;;15.50;34.50;;;;;;1784727;80;21140;-75
2021/04/23 10:59:32;;;;;;;6.35;2.50;;;15.30;35.30;;;;;;1781209;80;21440;-73
2021/04/23 11:02:17;;;;;;;6.87;2.83;;;15.20;36.00;;;;;;1778734;81;21592;-73
2021/04/23 11:04:59;;;;;;;6.08;2.20;;;15.00;34.90;;;;;;1779132;81;21299;-75
2021/04/23 11:07:30;;;;;;;8.68;2.25;;;14.90;35.70;;;;;;1776829;80;21138;-78
2021/04/23 11:10:02;;;;;;;5.37;2.05;;;14.70;37.40;;;;;;1751985;79;21172;-79
2021/04/23 11:12:31;;;;;;;4.55;2.30;;;14.80;37.70;;;;;;1800566;79;21511;-77
2021/04/23 11:15:17;;;;;;;4.95;2.10;;;14.90;37.40;;;;;;1779996;80;21153;-79
2021/04/23 11:17:44;;;;;;;6.17;2.30;;;15.00;37.80;;;;;;1780586;80;21533;-77
2021/04/23 11:20:27;;;;;;;4.20;1.98;;;15.00;37.10;;;;;;1782613;80;21598;-75
2021/04/23 11:22:58;;;;;;;4.75;2.25;;;15.10;38.20;;;;;;1787074;79;21106;-75
2021/04/23 11:25:28;;;;;;;8.13;2.42;;;15.10;37.60;;;;;;1786035;80;21158;-77
2021/04/23 11:28:06;;;;;;;6.80;2.37;;;15.20;36.10;;;;;;1696556;83;21644;-75
2021/04/23 11:31:04;;;;;;;4.95;2.62;;;15.20;35.80;;;;;;1780364;79;21548;-79
2021/04/23 11:33:59;;;;;;;6.53;2.47;;;15.10;37.10;;;;;;1777205;80;21099;-70
2021/04/23 11:36:36;;;;;;;9.25;2.85;;;14.90;37.90;;;;;;1780986;80;21404;-66
2021/04/23 11:39:08;;;;;;;7.78;2.35;;;14.50;37.20;;;;;;1776543;80;21140;-70
2021/04/23 11:41:37;;;;;;;4.33;2.10;;;14.50;38.40;;;;;;1779821;80;21165;-69
2021/04/23 11:44:39;;;;;;;4.85;2.35;;;14.60;38.30;;;;;;1777977;80;21141;-68
2021/04/23 11:47:07;;;;;;;6.33;2.37;;;14.70;38.50;;;;;;1780935;80;21098;-68
2021/04/23 11:49:36;;;;;;;10.45;2.80;;;14.70;38.00;;;;;;1785133;79;21146;-76
2021/04/23 11:52:04;;;;;;;6.15;2.65;;;14.70;39.10;;;;;;1783704;79;21158;-80
2021/04/23 11:54:41;;;;;;;6.58;2.50;;;14.70;39.10;;;;;;1785777;79;21562;-68
2021/04/23 11:57:13;;;;;;;6.00;2.58;;;14.80;40.70;;;;;;1777697;80;21129;-70
2021/04/23 12:00:02;;;;;;;7.67;2.33;;;14.70;38.90;;;;;;1777164;79;21546;-70
2021/04/23 12:02:41;;;;;;;7.70;2.47;;;14.80;38.00;;;;;;1748901;80;21476;-68
2021/04/23 12:05:28;;;;;;;5.33;2.50;;;14.50;37.40;;;;;;1777608;79;21148;-75
2021/04/23 12:08:07;;;;;;;6.58;2.50;;;14.50;38.60;;;;;;1780699;80;21144;-69
2021/04/23 12:10:44;;;;;;;8.98;3.17;;;14.50;38.70;;;;;;1770494;80;21133;-73
2021/04/23 12:13:22;;;;;;;6.75;2.40;;;14.50;38.30;;;;;;1768017;80;21128;-68
2021/04/23 12:15:55;;;;;;;5.67;2.77;;;14.60;39.40;;;;;;1768200;81;21129;-69
2021/04/23 12:18:24;;;;;;;4.65;2.70;;;14.60;39.40;;;;;;1769622;81;21565;-68
2021/04/23 12:20:56;;;;;;;10.13;3.12;;;14.80;40.10;;;;;;1768956;80;21126;-69
2021/04/23 12:23:31;;;;;;;5.65;2.70;;;14.90;39.90;;;;;;1768088;81;22152;-68
2021/04/23 12:26:03;;;;;;;5.60;2.40;;;14.90;38.50;;;;;;1767059;81;21087;-69
2021/04/23 12:28:43;;;;;;;5.90;2.60;;;14.90;38.10;;;;;;1772246;80;21122;-69
2021/04/23 12:31:28;;;;;;;6.03;2.30;;;14.90;38.70;;;;;;1759619;81;21134;-70
2021/04/23 12:34:10;;;;;;;14.05;3.22;;;14.90;38.50;;;;;;1771443;80;21625;-69
2021/04/23 12:36:44;;;;;;;8.53;2.60;;;14.90;38.00;;;;;;1768011;81;21588;-69
2021/04/23 12:39:27;;;;;;;7.97;2.60;;;14.90;39.00;;;;;;1778254;80;21573;-73
2021/04/23 12:42:02;;;;;;;7.20;2.52;;;14.90;37.40;;;;;;1772307;81;21142;-74
2021/04/23 12:44:34;;;;;;;6.67;2.90;;;14.90;38.20;;;;;;1768636;81;21122;-75
2021/04/23 12:47:09;;;;;;;5.40;2.47;;;14.80;38.30;;;;;;1768798;81;21129;-74
2021/04/23 12:49:43;;;;;;;6.67;2.75;;;14.80;39.10;;;;;;1750833;81;21565;-75
2021/04/23 12:52:18;;;;;;;5.97;2.83;;;14.80;38.90;;;;;;1770164;79;21165;-72
2021/04/23 12:54:51;;;;;;;9.63;2.70;;;14.70;39.10;;;;;;1783464;79;21181;-73
2021/04/23 12:57:29;;;;;;;6.25;2.80;;;14.60;40.10;;;;;;1781185;79;21138;-71
2021/04/23 13:00:15;;;;;;;6.28;2.47;;;14.40;40.20;;;;;;1763879;80;21557;-75
2021/04/23 13:02:46;;;;;;;9.83;3.10;;;14.40;40.30;;;;;;1769470;81;21150;-77
2021/04/23 13:05:20;;;;;;;7.67;2.95;;;14.30;39.80;;;;;;1766911;81;21125;-75